sensor_id;sensor_type;location;lat;lon;timestamp;P1;durP1;ratioP1;P2;durP2;ratioP2
34064;SDS011;20339;49.754;20.158;2023-06-10T00:00:33;19.00;;;16.70;;
34064;SDS011;20339;49.754;20.158;2023-06-10T00:03:29;19.30;;;16.60;;
34064;SDS011;20339;49.754;20.158;2023-06-10T00:06:05;18.50;;;16.50;;
34064;SDS011;20339;49.754;20.158;2023-06-10T00:08:39;18.90;;;16.90;;
34064;SDS011;20339;49.754;20.158;2023-06-10T00:11:12;19.20;;;17.10;;
34064;SDS011;20339;49.754;20.158;2023-06-10T00:13:43;18.90;;;15.90;;
34064;SDS011;20339;49.754;20.158;2023-06-10T00:16:19;18.00;;;15.20;;
34064;SDS011;20339;49.754;20.158;2023-06-10T00:18:54;17.30;;;14.70;;
34064;SDS011;20339;49.754;20.158;2023-06-10T00:21:31;18.30;;;15.60;;
34064;SDS011;20339;49.754;20.158;2023-06-10T00:24:06;16.40;;;14.80;;
34064;SDS011;20339;49.754;20.158;2023-06-10T00:26:43;15.70;;;13.50;;
34064;SDS011;20339;49.754;20.158;2023-06-10T00:29:15;14.50;;;12.90;;
34064;SDS011;20339;49.754;20.158;2023-06-10T00:31:49;16.40;;;13.20;;
34064;SDS011;20339;49.754;20.158;2023-06-10T00:34:25;13.80;;;12.00;;
34064;SDS011;20339;49.754;20.158;2023-06-10T00:37:02;14.50;;;11.40;;
34064;SDS011;20339;49.754;20.158;2023-06-10T00:39:33;14.50;;;11.60;;
34064;SDS011;20339;49.754;20.158;2023-06-10T00:42:08;13.10;;;11.00;;
34064;SDS011;20339;49.754;20.158;2023-06-10T00:44:40;15.50;;;11.20;;
34064;SDS011;20339;49.754;20.158;2023-06-10T00:47:20;10.80;;;9.70;;
34064;SDS011;20339;49.754;20.158;2023-06-10T00:49:55;11.30;;;10.00;;
34064;SDS011;20339;49.754;20.158;2023-06-10T00:52:28;11.90;;;10.10;;
34064;SDS011;20339;49.754;20.158;2023-06-10T00:55:05;10.80;;;9.70;;
34064;SDS011;20339;49.754;20.158;2023-06-10T00:57:41;13.10;;;10.20;;
34064;SDS011;20339;49.754;20.158;2023-06-10T01:00:19;12.80;;;10.60;;
34064;SDS011;20339;49.754;20.158;2023-06-10T01:02:51;12.10;;;10.80;;
34064;SDS011;20339;49.754;20.158;2023-06-10T01:05:23;11.50;;;10.20;;
34064;SDS011;20339;49.754;20.158;2023-06-10T01:08:06;11.60;;;9.70;;
34064;SDS011;20339;49.754;20.158;2023-06-10T01:10:46;12.80;;;11.00;;
34064;SDS011;20339;49.754;20.158;2023-06-10T01:13:35;12.70;;;11.40;;
34064;SDS011;20339;49.754;20.158;2023-06-10T01:16:12;14.90;;;12.80;;
34064;SDS011;20339;49.754;20.158;2023-06-10T01:18:47;14.10;;;11.80;;
34064;SDS011;20339;49.754;20.158;2023-06-10T01:21:23;12.40;;;10.90;;
34064;SDS011;20339;49.754;20.158;2023-06-10T01:23:58;14.60;;;12.00;;
34064;SDS011;20339;49.754;20.158;2023-06-10T01:26:33;13.90;;;11.70;;
34064;SDS011;20339;49.754;20.158;2023-06-10T01:29:11;15.10;;;13.10;;
34064;SDS011;20339;49.754;20.158;2023-06-10T01:31:52;12.10;;;10.70;;
34064;SDS011;20339;49.754;20.158;2023-06-10T01:34:31;15.80;;;13.70;;
34064;SDS011;20339;49.754;20.158;2023-06-10T01:37:18;16.10;;;14.10;;
34064;SDS011;20339;49.754;20.158;2023-06-10T01:39:52;15.90;;;13.80;;
34064;SDS011;20339;49.754;20.158;2023-06-10T01:42:33;13.40;;;12.00;;
34064;SDS011;20339;49.754;20.158;2023-06-10T01:45:11;16.60;;;13.00;;
34064;SDS011;20339;49.754;20.158;2023-06-10T01:47:42;13.30;;;12.00;;
34064;SDS011;20339;49.754;20.158;2023-06-10T01:50:15;15.70;;;14.10;;
34064;SDS011;20339;49.754;20.158;2023-06-10T01:52:52;17.50;;;13.50;;
34064;SDS011;20339;49.754;20.158;2023-06-10T01:55:26;17.70;;;14.00;;
34064;SDS011;20339;49.754;20.158;2023-06-10T02:00:39;15.50;;;13.90;;
34064;SDS011;20339;49.754;20.158;2023-06-10T02:03:11;15.80;;;14.10;;
34064;SDS011;20339;49.754;20.158;2023-06-10T02:05:55;17.10;;;15.30;;
34064;SDS011;20339;49.754;20.158;2023-06-10T02:08:27;19.30;;;16.10;;
34064;SDS011;20339;49.754;20.158;2023-06-10T02:10:59;18.30;;;15.80;;
34064;SDS011;20339;49.754;20.158;2023-06-10T02:13:35;21.00;;;17.40;;
34064;SDS011;20339;49.754;20.158;2023-06-10T02:16:07;20.10;;;17.50;;
34064;SDS011;20339;49.754;20.158;2023-06-10T02:18:43;19.00;;;16.90;;
34064;SDS011;20339;49.754;20.158;2023-06-10T02:21:18;21.40;;;18.60;;
34064;SDS011;20339;49.754;20.158;2023-06-10T02:23:49;21.20;;;18.90;;
34064;SDS011;20339;49.754;20.158;2023-06-10T02:26:21;23.30;;;20.60;;
34064;SDS011;20339;49.754;20.158;2023-06-10T02:28:55;22.70;;;20.30;;
34064;SDS011;20339;49.754;20.158;2023-06-10T02:31:29;24.00;;;21.00;;
34064;SDS011;20339;49.754;20.158;2023-06-10T02:34:04;14.60;;;13.00;;
34064;SDS011;20339;49.754;20.158;2023-06-10T02:36:38;18.30;;;15.20;;
34064;SDS011;20339;49.754;20.158;2023-06-10T02:39:11;18.30;;;16.30;;
34064;SDS011;20339;49.754;20.158;2023-06-10T02:41:43;20.10;;;16.00;;
34064;SDS011;20339;49.754;20.158;2023-06-10T02:44:19;16.30;;;14.60;;
34064;SDS011;20339;49.754;20.158;2023-06-10T02:46:55;17.20;;;15.30;;
34064;SDS011;20339;49.754;20.158;2023-06-10T02:49:30;17.40;;;15.50;;
34064;SDS011;20339;49.754;20.158;2023-06-10T02:52:02;19.40;;;16.80;;
34064;SDS011;20339;49.754;20.158;2023-06-10T02:54:43;21.20;;;17.70;;
34064;SDS011;20339;49.754;20.158;2023-06-10T02:57:18;18.80;;;16.80;;
34064;SDS011;20339;49.754;20.158;2023-06-10T02:59:53;21.80;;;18.20;;
34064;SDS011;20339;49.754;20.158;2023-06-10T03:02:26;22.80;;;17.90;;
34064;SDS011;20339;49.754;20.158;2023-06-10T03:05:02;19.50;;;17.50;;
34064;SDS011;20339;49.754;20.158;2023-06-10T03:07:39;17.50;;;15.70;;
34064;SDS011;20339;49.754;20.158;2023-06-10T03:10:12;16.30;;;14.60;;
34064;SDS011;20339;49.754;20.158;2023-06-10T03:12:46;16.60;;;15.00;;
34064;SDS011;20339;49.754;20.158;2023-06-10T03:15:20;18.70;;;15.90;;
34064;SDS011;20339;49.754;20.158;2023-06-10T03:18:00;23.80;;;20.10;;
34064;SDS011;20339;49.754;20.158;2023-06-10T03:20:34;29.50;;;26.40;;
34064;SDS011;20339;49.754;20.158;2023-06-10T03:23:09;27.60;;;23.90;;
34064;SDS011;20339;49.754;20.158;2023-06-10T03:25:46;28.80;;;25.40;;
34064;SDS011;20339;49.754;20.158;2023-06-10T03:28:20;29.80;;;25.70;;
34064;SDS011;20339;49.754;20.158;2023-06-10T03:30:53;31.90;;;26.70;;
34064;SDS011;20339;49.754;20.158;2023-06-10T03:33:25;31.40;;;26.70;;
34064;SDS011;20339;49.754;20.158;2023-06-10T03:36:01;33.30;;;29.40;;
34064;SDS011;20339;49.754;20.158;2023-06-10T03:38:34;29.80;;;26.60;;
34064;SDS011;20339;49.754;20.158;2023-06-10T03:41:10;29.90;;;26.80;;
34064;SDS011;20339;49.754;20.158;2023-06-10T03:43:44;30.40;;;27.20;;
34064;SDS011;20339;49.754;20.158;2023-06-10T03:46:15;32.40;;;28.30;;
34064;SDS011;20339;49.754;20.158;2023-06-10T03:48:48;31.10;;;27.70;;
34064;SDS011;20339;49.754;20.158;2023-06-10T03:51:20;28.70;;;25.50;;
34064;SDS011;20339;49.754;20.158;2023-06-10T03:53:57;29.20;;;26.10;;
34064;SDS011;20339;49.754;20.158;2023-06-10T03:56:28;33.40;;;27.70;;
34064;SDS011;20339;49.754;20.158;2023-06-10T03:59:02;30.90;;;26.30;;
34064;SDS011;20339;49.754;20.158;2023-06-10T04:01:36;28.20;;;24.90;;
34064;SDS011;20339;49.754;20.158;2023-06-10T04:04:14;30.90;;;25.60;;
34064;SDS011;20339;49.754;20.158;2023-06-10T04:06:46;31.70;;;26.80;;
34064;SDS011;20339;49.754;20.158;2023-06-10T04:09:20;29.90;;;24.80;;
34064;SDS011;20339;49.754;20.158;2023-06-10T04:11:53;33.30;;;26.10;;
34064;SDS011;20339;49.754;20.158;2023-06-10T04:14:34;31.10;;;26.00;;
34064;SDS011;20339;49.754;20.158;2023-06-10T04:17:06;31.90;;;27.00;;
34064;SDS011;20339;49.754;20.158;2023-06-10T04:19:38;34.30;;;26.70;;
34064;SDS011;20339;49.754;20.158;2023-06-10T04:22:09;31.30;;;27.30;;
34064;SDS011;20339;49.754;20.158;2023-06-10T04:24:43;35.70;;;27.00;;
34064;SDS011;20339;49.754;20.158;2023-06-10T04:27:17;34.50;;;27.10;;
34064;SDS011;20339;49.754;20.158;2023-06-10T04:29:50;36.20;;;28.60;;
34064;SDS011;20339;49.754;20.158;2023-06-10T04:32:24;35.80;;;28.20;;
34064;SDS011;20339;49.754;20.158;2023-06-10T04:34:55;37.30;;;29.10;;
34064;SDS011;20339;49.754;20.158;2023-06-10T04:37:30;36.50;;;28.90;;
34064;SDS011;20339;49.754;20.158;2023-06-10T04:40:01;37.90;;;29.90;;
34064;SDS011;20339;49.754;20.158;2023-06-10T04:42:39;37.30;;;28.50;;
34064;SDS011;20339;49.754;20.158;2023-06-10T04:45:12;35.40;;;28.10;;
34064;SDS011;20339;49.754;20.158;2023-06-10T04:47:43;36.20;;;27.60;;
34064;SDS011;20339;49.754;20.158;2023-06-10T04:50:15;37.00;;;28.30;;
34064;SDS011;20339;49.754;20.158;2023-06-10T04:52:47;36.70;;;27.30;;
34064;SDS011;20339;49.754;20.158;2023-06-10T04:55:21;36.30;;;27.80;;
34064;SDS011;20339;49.754;20.158;2023-06-10T04:57:54;37.30;;;27.80;;
34064;SDS011;20339;49.754;20.158;2023-06-10T05:00:27;37.90;;;27.20;;
34064;SDS011;20339;49.754;20.158;2023-06-10T05:02:59;34.40;;;27.40;;
34064;SDS011;20339;49.754;20.158;2023-06-10T05:05:31;37.60;;;27.80;;
34064;SDS011;20339;49.754;20.158;2023-06-10T05:08:04;36.70;;;26.40;;
34064;SDS011;20339;49.754;20.158;2023-06-10T05:10:38;33.70;;;26.00;;
34064;SDS011;20339;49.754;20.158;2023-06-10T05:13:11;33.40;;;27.00;;
34064;SDS011;20339;49.754;20.158;2023-06-10T05:15:43;33.50;;;26.10;;
34064;SDS011;20339;49.754;20.158;2023-06-10T05:18:23;36.10;;;27.50;;
34064;SDS011;20339;49.754;20.158;2023-06-10T05:20:55;38.00;;;28.50;;
34064;SDS011;20339;49.754;20.158;2023-06-10T05:23:27;37.30;;;28.30;;
34064;SDS011;20339;49.754;20.158;2023-06-10T05:25:58;39.20;;;28.10;;
34064;SDS011;20339;49.754;20.158;2023-06-10T05:28:30;38.60;;;28.20;;
34064;SDS011;20339;49.754;20.158;2023-06-10T05:31:02;40.60;;;28.20;;
34064;SDS011;20339;49.754;20.158;2023-06-10T05:33:33;41.30;;;29.80;;
34064;SDS011;20339;49.754;20.158;2023-06-10T05:36:05;42.30;;;30.60;;
34064;SDS011;20339;49.754;20.158;2023-06-10T05:38:41;40.20;;;31.50;;
34064;SDS011;20339;49.754;20.158;2023-06-10T05:41:17;42.70;;;33.00;;
34064;SDS011;20339;49.754;20.158;2023-06-10T05:43:49;42.70;;;33.10;;
34064;SDS011;20339;49.754;20.158;2023-06-10T05:46:21;42.40;;;33.80;;
34064;SDS011;20339;49.754;20.158;2023-06-10T05:49:00;39.70;;;32.00;;
34064;SDS011;20339;49.754;20.158;2023-06-10T05:51:33;38.70;;;31.90;;
34064;SDS011;20339;49.754;20.158;2023-06-10T05:54:05;39.50;;;32.00;;
34064;SDS011;20339;49.754;20.158;2023-06-10T05:56:38;41.20;;;32.30;;
34064;SDS011;20339;49.754;20.158;2023-06-10T05:59:10;40.30;;;31.60;;
34064;SDS011;20339;49.754;20.158;2023-06-10T06:01:41;39.00;;;31.40;;
34064;SDS011;20339;49.754;20.158;2023-06-10T06:04:13;34.80;;;30.00;;
34064;SDS011;20339;49.754;20.158;2023-06-10T06:06:44;40.50;;;33.40;;
34064;SDS011;20339;49.754;20.158;2023-06-10T06:09:16;41.00;;;34.10;;
34064;SDS011;20339;49.754;20.158;2023-06-10T06:11:47;41.50;;;33.00;;
34064;SDS011;20339;49.754;20.158;2023-06-10T06:14:19;39.50;;;31.80;;
34064;SDS011;20339;49.754;20.158;2023-06-10T06:16:54;38.20;;;31.80;;
34064;SDS011;20339;49.754;20.158;2023-06-10T06:19:25;39.40;;;32.70;;
34064;SDS011;20339;49.754;20.158;2023-06-10T06:21:57;39.00;;;32.30;;
34064;SDS011;20339;49.754;20.158;2023-06-10T06:24:30;40.10;;;31.20;;
34064;SDS011;20339;49.754;20.158;2023-06-10T06:27:03;43.00;;;33.40;;
34064;SDS011;20339;49.754;20.158;2023-06-10T06:29:38;40.20;;;33.00;;
34064;SDS011;20339;49.754;20.158;2023-06-10T06:32:10;43.80;;;34.50;;
34064;SDS011;20339;49.754;20.158;2023-06-10T06:34:41;43.30;;;34.50;;
34064;SDS011;20339;49.754;20.158;2023-06-10T06:37:21;37.10;;;32.60;;
34064;SDS011;20339;49.754;20.158;2023-06-10T06:39:57;40.10;;;33.80;;
34064;SDS011;20339;49.754;20.158;2023-06-10T06:42:34;39.70;;;33.30;;
34064;SDS011;20339;49.754;20.158;2023-06-10T06:45:06;42.50;;;32.90;;
34064;SDS011;20339;49.754;20.158;2023-06-10T06:47:40;38.30;;;31.40;;
34064;SDS011;20339;49.754;20.158;2023-06-10T06:50:13;37.90;;;30.30;;
34064;SDS011;20339;49.754;20.158;2023-06-10T06:52:50;40.50;;;31.70;;
34064;SDS011;20339;49.754;20.158;2023-06-10T06:55:22;37.90;;;31.90;;
34064;SDS011;20339;49.754;20.158;2023-06-10T06:58:04;38.40;;;31.40;;
34064;SDS011;20339;49.754;20.158;2023-06-10T07:00:37;41.70;;;31.30;;
34064;SDS011;20339;49.754;20.158;2023-06-10T07:03:10;37.70;;;30.30;;
34064;SDS011;20339;49.754;20.158;2023-06-10T07:05:45;38.30;;;30.20;;
34064;SDS011;20339;49.754;20.158;2023-06-10T07:08:22;36.60;;;31.20;;
34064;SDS011;20339;49.754;20.158;2023-06-10T07:10:57;40.90;;;31.70;;
34064;SDS011;20339;49.754;20.158;2023-06-10T07:13:29;35.40;;;31.30;;
34064;SDS011;20339;49.754;20.158;2023-06-10T07:16:09;34.60;;;30.60;;
34064;SDS011;20339;49.754;20.158;2023-06-10T07:18:52;39.90;;;31.30;;
34064;SDS011;20339;49.754;20.158;2023-06-10T07:21:26;36.30;;;29.70;;
34064;SDS011;20339;49.754;20.158;2023-06-10T07:24:03;34.90;;;27.40;;
34064;SDS011;20339;49.754;20.158;2023-06-10T07:26:35;31.50;;;25.60;;
34064;SDS011;20339;49.754;20.158;2023-06-10T07:29:08;32.90;;;26.00;;
34064;SDS011;20339;49.754;20.158;2023-06-10T07:31:42;31.20;;;24.00;;
34064;SDS011;20339;49.754;20.158;2023-06-10T07:34:20;29.40;;;24.00;;
34064;SDS011;20339;49.754;20.158;2023-06-10T07:36:56;28.70;;;23.40;;
34064;SDS011;20339;49.754;20.158;2023-06-10T07:39:28;24.70;;;20.40;;
34064;SDS011;20339;49.754;20.158;2023-06-10T07:42:03;24.70;;;21.70;;
34064;SDS011;20339;49.754;20.158;2023-06-10T07:44:39;24.60;;;19.80;;
34064;SDS011;20339;49.754;20.158;2023-06-10T07:47:12;20.40;;;17.60;;
34064;SDS011;20339;49.754;20.158;2023-06-10T07:49:45;22.00;;;17.50;;
34064;SDS011;20339;49.754;20.158;2023-06-10T07:52:21;18.20;;;14.80;;
34064;SDS011;20339;49.754;20.158;2023-06-10T07:54:52;16.70;;;14.60;;
34064;SDS011;20339;49.754;20.158;2023-06-10T07:57:24;16.00;;;13.80;;
34064;SDS011;20339;49.754;20.158;2023-06-10T07:59:56;18.20;;;13.00;;
34064;SDS011;20339;49.754;20.158;2023-06-10T08:02:33;15.60;;;13.00;;
34064;SDS011;20339;49.754;20.158;2023-06-10T08:05:06;18.70;;;13.20;;
34064;SDS011;20339;49.754;20.158;2023-06-10T08:07:44;15.30;;;12.60;;
34064;SDS011;20339;49.754;20.158;2023-06-10T08:10:21;16.30;;;13.20;;
34064;SDS011;20339;49.754;20.158;2023-06-10T08:13:00;15.60;;;12.70;;
34064;SDS011;20339;49.754;20.158;2023-06-10T08:15:40;16.70;;;13.50;;
34064;SDS011;20339;49.754;20.158;2023-06-10T08:18:14;16.30;;;13.80;;
34064;SDS011;20339;49.754;20.158;2023-06-10T08:20:52;16.80;;;14.80;;
34064;SDS011;20339;49.754;20.158;2023-06-10T08:23:24;17.40;;;13.70;;
34064;SDS011;20339;49.754;20.158;2023-06-10T08:25:58;17.60;;;14.80;;
34064;SDS011;20339;49.754;20.158;2023-06-10T08:28:44;18.10;;;15.10;;
34064;SDS011;20339;49.754;20.158;2023-06-10T08:31:20;19.00;;;14.80;;
34064;SDS011;20339;49.754;20.158;2023-06-10T08:33:52;18.50;;;14.90;;
34064;SDS011;20339;49.754;20.158;2023-06-10T08:36:27;18.70;;;16.30;;
34064;SDS011;20339;49.754;20.158;2023-06-10T08:38:59;17.90;;;15.90;;
34064;SDS011;20339;49.754;20.158;2023-06-10T08:41:35;19.40;;;17.30;;
34064;SDS011;20339;49.754;20.158;2023-06-10T08:44:21;20.80;;;17.10;;
34064;SDS011;20339;49.754;20.158;2023-06-10T08:46:58;20.30;;;17.50;;
34064;SDS011;20339;49.754;20.158;2023-06-10T08:49:38;20.20;;;18.10;;
34064;SDS011;20339;49.754;20.158;2023-06-10T08:52:16;18.80;;;16.90;;
34064;SDS011;20339;49.754;20.158;2023-06-10T08:55:04;20.70;;;18.60;;
34064;SDS011;20339;49.754;20.158;2023-06-10T08:57:43;22.90;;;20.50;;
34064;SDS011;20339;49.754;20.158;2023-06-10T09:00:22;21.20;;;18.90;;
34064;SDS011;20339;49.754;20.158;2023-06-10T09:03:02;20.90;;;18.80;;
34064;SDS011;20339;49.754;20.158;2023-06-10T09:05:38;20.60;;;18.50;;
34064;SDS011;20339;49.754;20.158;2023-06-10T09:08:18;21.20;;;19.10;;
34064;SDS011;20339;49.754;20.158;2023-06-10T09:11:02;19.00;;;17.30;;
34064;SDS011;20339;49.754;20.158;2023-06-10T09:13:50;19.60;;;17.90;;
34064;SDS011;20339;49.754;20.158;2023-06-10T09:16:26;19.10;;;17.20;;
34064;SDS011;20339;49.754;20.158;2023-06-10T09:18:59;18.80;;;17.00;;
34064;SDS011;20339;49.754;20.158;2023-06-10T09:21:37;18.70;;;16.80;;
34064;SDS011;20339;49.754;20.158;2023-06-10T09:24:12;19.30;;;17.30;;
34064;SDS011;20339;49.754;20.158;2023-06-10T09:26:51;18.80;;;17.00;;
34064;SDS011;20339;49.754;20.158;2023-06-10T09:32:23;18.40;;;16.60;;
34064;SDS011;20339;49.754;20.158;2023-06-10T09:35:08;16.30;;;14.70;;
34064;SDS011;20339;49.754;20.158;2023-06-10T09:37:43;16.90;;;15.20;;
34064;SDS011;20339;49.754;20.158;2023-06-10T09:40:25;16.20;;;14.50;;
34064;SDS011;20339;49.754;20.158;2023-06-10T09:43:00;16.70;;;15.10;;
34064;SDS011;20339;49.754;20.158;2023-06-10T09:45:41;16.50;;;14.90;;
34064;SDS011;20339;49.754;20.158;2023-06-10T09:48:37;15.40;;;13.90;;
34064;SDS011;20339;49.754;20.158;2023-06-10T09:51:32;16.60;;;15.00;;
34064;SDS011;20339;49.754;20.158;2023-06-10T09:54:17;16.40;;;14.70;;
34064;SDS011;20339;49.754;20.158;2023-06-10T09:56:53;15.90;;;14.40;;
34064;SDS011;20339;49.754;20.158;2023-06-10T09:59:56;16.50;;;13.70;;
34064;SDS011;20339;49.754;20.158;2023-06-10T10:02:32;14.90;;;13.50;;
34064;SDS011;20339;49.754;20.158;2023-06-10T10:05:21;16.70;;;15.20;;
34064;SDS011;20339;49.754;20.158;2023-06-10T10:08:02;15.30;;;13.80;;
34064;SDS011;20339;49.754;20.158;2023-06-10T10:10:43;15.60;;;14.00;;
34064;SDS011;20339;49.754;20.158;2023-06-10T10:13:25;14.60;;;12.90;;
34064;SDS011;20339;49.754;20.158;2023-06-10T10:16:01;18.20;;;13.10;;
34064;SDS011;20339;49.754;20.158;2023-06-10T10:18:41;13.70;;;12.30;;
34064;SDS011;20339;49.754;20.158;2023-06-10T10:21:21;13.30;;;12.10;;
34064;SDS011;20339;49.754;20.158;2023-06-10T10:24:01;12.20;;;11.00;;
34064;SDS011;20339;49.754;20.158;2023-06-10T10:26:39;11.70;;;10.40;;
34064;SDS011;20339;49.754;20.158;2023-06-10T10:29:22;13.10;;;11.50;;
34064;SDS011;20339;49.754;20.158;2023-06-10T10:32:02;11.50;;;10.40;;
34064;SDS011;20339;49.754;20.158;2023-06-10T10:34:53;12.30;;;11.00;;
34064;SDS011;20339;49.754;20.158;2023-06-10T10:37:46;9.80;;;8.80;;
34064;SDS011;20339;49.754;20.158;2023-06-10T10:40:23;12.10;;;9.60;;
34064;SDS011;20339;49.754;20.158;2023-06-10T10:43:07;11.60;;;9.40;;
34064;SDS011;20339;49.754;20.158;2023-06-10T10:45:48;9.90;;;8.90;;
34064;SDS011;20339;49.754;20.158;2023-06-10T10:48:41;8.70;;;7.90;;
34064;SDS011;20339;49.754;20.158;2023-06-10T10:51:21;10.60;;;9.10;;
34064;SDS011;20339;49.754;20.158;2023-06-10T10:54:13;11.50;;;8.70;;
34064;SDS011;20339;49.754;20.158;2023-06-10T10:59:55;9.10;;;8.20;;
34064;SDS011;20339;49.754;20.158;2023-06-10T11:02:45;9.90;;;8.90;;
34064;SDS011;20339;49.754;20.158;2023-06-10T11:05:31;8.30;;;7.50;;
34064;SDS011;20339;49.754;20.158;2023-06-10T11:11:26;12.50;;;8.00;;
34064;SDS011;20339;49.754;20.158;2023-06-10T11:14:27;9.30;;;7.10;;
34064;SDS011;20339;49.754;20.158;2023-06-10T11:17:15;8.60;;;7.70;;
34064;SDS011;20339;49.754;20.158;2023-06-10T11:19:55;7.20;;;6.50;;
34064;SDS011;20339;49.754;20.158;2023-06-10T11:22:32;8.80;;;6.90;;
34064;SDS011;20339;49.754;20.158;2023-06-10T11:25:30;9.00;;;7.30;;
34064;SDS011;20339;49.754;20.158;2023-06-10T11:29:06;9.50;;;8.50;;
34064;SDS011;20339;49.754;20.158;2023-06-10T11:32:08;8.90;;;7.70;;
34064;SDS011;20339;49.754;20.158;2023-06-10T11:35:07;8.10;;;7.10;;
34064;SDS011;20339;49.754;20.158;2023-06-10T11:38:09;9.10;;;8.00;;
34064;SDS011;20339;49.754;20.158;2023-06-10T11:40:59;9.30;;;7.60;;
34064;SDS011;20339;49.754;20.158;2023-06-10T11:43:38;8.40;;;7.10;;
34064;SDS011;20339;49.754;20.158;2023-06-10T11:46:47;8.60;;;7.00;;
34064;SDS011;20339;49.754;20.158;2023-06-10T11:49:56;8.10;;;7.20;;
34064;SDS011;20339;49.754;20.158;2023-06-10T11:52:35;8.50;;;7.00;;
34064;SDS011;20339;49.754;20.158;2023-06-10T11:55:31;8.80;;;7.90;;
34064;SDS011;20339;49.754;20.158;2023-06-10T11:58:43;9.20;;;7.70;;
34064;SDS011;20339;49.754;20.158;2023-06-10T12:01:29;8.20;;;7.40;;
34064;SDS011;20339;49.754;20.158;2023-06-10T12:04:08;8.10;;;7.20;;
34064;SDS011;20339;49.754;20.158;2023-06-10T12:06:49;13.40;;;8.50;;
34064;SDS011;20339;49.754;20.158;2023-06-10T12:09:31;10.10;;;7.90;;
34064;SDS011;20339;49.754;20.158;2023-06-10T12:12:11;9.70;;;8.40;;
34064;SDS011;20339;49.754;20.158;2023-06-10T12:14:53;10.30;;;9.30;;
34064;SDS011;20339;49.754;20.158;2023-06-10T12:17:37;11.40;;;8.90;;
34064;SDS011;20339;49.754;20.158;2023-06-10T12:20:27;11.60;;;9.90;;
34064;SDS011;20339;49.754;20.158;2023-06-10T12:23:10;11.30;;;10.10;;
34064;SDS011;20339;49.754;20.158;2023-06-10T12:25:58;12.70;;;11.40;;
34064;SDS011;20339;49.754;20.158;2023-06-10T12:28:35;13.50;;;12.10;;
34064;SDS011;20339;49.754;20.158;2023-06-10T12:31:08;14.30;;;13.00;;
34064;SDS011;20339;49.754;20.158;2023-06-10T12:33:46;14.40;;;13.10;;
34064;SDS011;20339;49.754;20.158;2023-06-10T12:36:22;15.40;;;13.90;;
34064;SDS011;20339;49.754;20.158;2023-06-10T12:39:04;15.90;;;14.40;;
34064;SDS011;20339;49.754;20.158;2023-06-10T12:41:48;14.70;;;13.40;;
34064;SDS011;20339;49.754;20.158;2023-06-10T12:44:31;15.80;;;14.40;;
34064;SDS011;20339;49.754;20.158;2023-06-10T12:47:10;16.00;;;14.70;;
34064;SDS011;20339;49.754;20.158;2023-06-10T12:49:43;15.60;;;14.10;;
34064;SDS011;20339;49.754;20.158;2023-06-10T12:52:15;15.50;;;14.10;;
34064;SDS011;20339;49.754;20.158;2023-06-10T12:54:50;15.30;;;13.80;;
34064;SDS011;20339;49.754;20.158;2023-06-10T12:57:27;14.00;;;12.60;;
34064;SDS011;20339;49.754;20.158;2023-06-10T13:00:06;15.70;;;14.30;;
34064;SDS011;20339;49.754;20.158;2023-06-10T13:02:47;15.00;;;13.60;;
34064;SDS011;20339;49.754;20.158;2023-06-10T13:05:30;16.00;;;14.60;;
34064;SDS011;20339;49.754;20.158;2023-06-10T13:08:11;15.60;;;14.20;;
34064;SDS011;20339;49.754;20.158;2023-06-10T13:10:44;13.00;;;11.80;;
34064;SDS011;20339;49.754;20.158;2023-06-10T13:13:18;11.70;;;10.50;;
34064;SDS011;20339;49.754;20.158;2023-06-10T13:15:53;12.20;;;11.00;;
34064;SDS011;20339;49.754;20.158;2023-06-10T13:18:26;12.20;;;11.10;;
34064;SDS011;20339;49.754;20.158;2023-06-10T13:23:39;13.00;;;11.70;;
34064;SDS011;20339;49.754;20.158;2023-06-10T13:26:14;13.70;;;12.10;;
34064;SDS011;20339;49.754;20.158;2023-06-10T13:28:58;13.40;;;12.20;;
34064;SDS011;20339;49.754;20.158;2023-06-10T13:31:30;13.10;;;11.90;;
34064;SDS011;20339;49.754;20.158;2023-06-10T13:34:02;14.20;;;12.80;;
34064;SDS011;20339;49.754;20.158;2023-06-10T13:36:41;14.80;;;13.50;;
34064;SDS011;20339;49.754;20.158;2023-06-10T13:39:14;15.60;;;14.20;;
34064;SDS011;20339;49.754;20.158;2023-06-10T13:41:49;15.30;;;13.80;;
34064;SDS011;20339;49.754;20.158;2023-06-10T13:44:24;15.20;;;13.70;;
34064;SDS011;20339;49.754;20.158;2023-06-10T13:47:04;15.20;;;13.80;;
34064;SDS011;20339;49.754;20.158;2023-06-10T13:49:40;15.80;;;14.40;;
34064;SDS011;20339;49.754;20.158;2023-06-10T13:52:16;15.30;;;13.80;;
34064;SDS011;20339;49.754;20.158;2023-06-10T13:54:51;15.90;;;14.30;;
34064;SDS011;20339;49.754;20.158;2023-06-10T13:57:29;16.30;;;14.90;;
34064;SDS011;20339;49.754;20.158;2023-06-10T14:00:02;15.60;;;14.10;;
34064;SDS011;20339;49.754;20.158;2023-06-10T14:02:40;15.30;;;14.00;;
34064;SDS011;20339;49.754;20.158;2023-06-10T14:05:18;15.90;;;14.50;;
34064;SDS011;20339;49.754;20.158;2023-06-10T14:07:54;16.10;;;14.70;;
34064;SDS011;20339;49.754;20.158;2023-06-10T14:10:28;16.30;;;14.80;;
34064;SDS011;20339;49.754;20.158;2023-06-10T14:13:05;16.10;;;14.80;;
34064;SDS011;20339;49.754;20.158;2023-06-10T14:15:37;12.10;;;11.00;;
34064;SDS011;20339;49.754;20.158;2023-06-10T14:18:12;13.80;;;12.40;;
34064;SDS011;20339;49.754;20.158;2023-06-10T14:20:45;13.60;;;12.40;;
34064;SDS011;20339;49.754;20.158;2023-06-10T14:23:32;14.10;;;12.90;;
34064;SDS011;20339;49.754;20.158;2023-06-10T14:26:06;13.60;;;12.30;;
34064;SDS011;20339;49.754;20.158;2023-06-10T14:28:43;12.50;;;11.30;;
34064;SDS011;20339;49.754;20.158;2023-06-10T14:31:23;14.20;;;12.80;;
34064;SDS011;20339;49.754;20.158;2023-06-10T14:33:58;11.20;;;10.10;;
34064;SDS011;20339;49.754;20.158;2023-06-10T14:36:39;10.90;;;9.90;;
34064;SDS011;20339;49.754;20.158;2023-06-10T14:39:17;11.90;;;10.40;;
34064;SDS011;20339;49.754;20.158;2023-06-10T14:42:00;11.00;;;10.00;;
34064;SDS011;20339;49.754;20.158;2023-06-10T14:44:35;9.80;;;8.60;;
34064;SDS011;20339;49.754;20.158;2023-06-10T14:47:16;10.90;;;8.30;;
34064;SDS011;20339;49.754;20.158;2023-06-10T14:49:52;7.30;;;6.60;;
34064;SDS011;20339;49.754;20.158;2023-06-10T14:52:36;7.20;;;6.40;;
34064;SDS011;20339;49.754;20.158;2023-06-10T14:55:13;7.90;;;7.10;;
34064;SDS011;20339;49.754;20.158;2023-06-10T14:57:52;7.10;;;6.00;;
34064;SDS011;20339;49.754;20.158;2023-06-10T15:00:36;6.80;;;6.20;;
34064;SDS011;20339;49.754;20.158;2023-06-10T15:03:22;7.50;;;5.60;;
34064;SDS011;20339;49.754;20.158;2023-06-10T15:06:00;7.10;;;5.60;;
34064;SDS011;20339;49.754;20.158;2023-06-10T15:08:39;8.60;;;5.30;;
34064;SDS011;20339;49.754;20.158;2023-06-10T15:11:22;5.40;;;4.90;;
34064;SDS011;20339;49.754;20.158;2023-06-10T15:13:58;5.50;;;4.80;;
34064;SDS011;20339;49.754;20.158;2023-06-10T15:16:36;5.00;;;4.40;;
34064;SDS011;20339;49.754;20.158;2023-06-10T15:19:10;7.00;;;5.00;;
34064;SDS011;20339;49.754;20.158;2023-06-10T15:21:46;7.70;;;4.90;;
34064;SDS011;20339;49.754;20.158;2023-06-10T15:24:23;6.90;;;4.70;;
34064;SDS011;20339;49.754;20.158;2023-06-10T15:30:08;5.50;;;4.20;;